Terminal Aerodrome Forecast
Issued by NWS

Home | Current Version | Previous Version | Text Only | Print | Product List | Glossary On
Versions: 1 2 3 4 5 6 7 8 9 10 11 12 13
000
FTUS43 KOAX 250545
TAFCDR
TAF
KCDR 250545Z 2506/2606 30004KT P6SM SCT060 BKN100
      TEMPO 2511/2515 4SM BR BKN015
     FM251700 09010KT P6SM VCTS SCT050CB BKN150
     FM252200 14010KT 5SM -TSRA BKN050CB
     FM260300 16012KT 3SM -RA VCTS SCT018 BKN030CB=

USA.gov is the U.S. government's official web portal to all federal, state and local government web resources and services.